Time;durP1;ratioP1;P1;durP2;ratioP2;P2;SDS_P1;SDS_P2;PMS_P1;PMS_P2;Temp;Humidity;BMP_temperature;BMP_pressure;BME280_temperature;BME280_humidity;BME280_pressure;Samples;Min_cycle;Max_cycle;Signal;HPM_P1;HPM_P2
2024/04/01 00:01:19;;;;;;;9.60;9.40;;;;;;;;;;5080554;28;20468;-72
2024/04/01 00:03:47;;;;;;;9.07;8.87;;;;;;;;;;5080050;28;20983;-71
2024/04/01 00:06:13;;;;;;;9.37;9.17;;;;;;;;;;5089414;28;21001;-71
2024/04/01 00:08:42;;;;;;;9.40;9.20;;;;;;;;;;5085471;28;21001;-71
2024/04/01 00:11:08;;;;;;;9.77;9.57;;;;;;;;;;5086815;28;20462;-72
2024/04/01 00:13:49;;;;;;;9.00;8.80;;;;;;;;;;5098346;28;20489;-72
2024/04/01 00:16:16;;;;;;;9.77;9.57;;;;;;;;;;5113462;27;20449;-72
2024/04/01 00:18:45;;;;;;;9.43;9.23;;;;;;;;;;5098894;28;20463;-73
2024/04/01 00:21:17;;;;;;;9.17;8.97;;;;;;;;;;5102956;28;20516;-70
2024/04/01 00:23:46;;;;;;;9.70;9.50;;;;;;;;;;5107583;28;20966;-70
2024/04/01 00:26:16;;;;;;;8.70;8.60;;;;;;;;;;5106356;28;20849;-72
2024/04/01 00:28:45;;;;;;;9.23;9.03;;;;;;;;;;5104844;28;20989;-70
2024/04/01 00:31:11;;;;;;;9.23;9.03;;;;;;;;;;5102280;28;20454;-71
2024/04/01 00:33:39;;;;;;;9.10;8.90;;;;;;;;;;5097474;28;20454;-69
2024/04/01 00:36:06;;;;;;;9.70;9.50;;;;;;;;;;5094716;28;20464;-72
2024/04/01 00:38:33;;;;;;;9.70;9.50;;;;;;;;;;5104720;28;20810;-70
2024/04/01 00:41:00;;;;;;;9.63;9.43;;;;;;;;;;5094028;28;20488;-71
2024/04/01 00:43:30;;;;;;;9.37;9.17;;;;;;;;;;5108126;28;20454;-70
2024/04/01 00:45:58;;;;;;;9.60;9.40;;;;;;;;;;5099058;28;20837;-69
2024/04/01 00:48:25;;;;;;;9.17;8.97;;;;;;;;;;5103663;28;20488;-71
2024/04/01 00:50:51;;;;;;;9.30;9.10;;;;;;;;;;5105796;28;20831;-71
2024/04/01 00:53:20;;;;;;;9.40;9.20;;;;;;;;;;5096368;28;20525;-71
2024/04/01 00:55:46;;;;;;;9.10;8.90;;;;;;;;;;5108317;28;20485;-71
2024/04/01 00:58:13;;;;;;;9.47;9.27;;;;;;;;;;5105480;28;20465;-70
2024/04/01 01:00:40;;;;;;;9.57;9.37;;;;;;;;;;5070799;28;20835;-71
2024/04/01 01:03:09;;;;;;;9.77;9.57;;;;;;;;;;5069033;28;20458;-71
2024/04/01 01:05:35;;;;;;;9.93;9.73;;;;;;;;;;5068920;28;20469;-70
2024/04/01 01:08:02;;;;;;;9.70;9.50;;;;;;;;;;5068486;28;20530;-70
2024/04/01 01:10:33;;;;;;;9.30;9.10;;;;;;;;;;5069294;28;20475;-70
2024/04/01 01:13:01;;;;;;;9.23;9.03;;;;;;;;;;5069384;28;20485;-70
2024/04/01 01:15:27;;;;;;;9.53;9.33;;;;;;;;;;5069681;28;20474;-70
2024/04/01 01:17:54;;;;;;;9.63;9.43;;;;;;;;;;5069005;28;20517;-69
2024/04/01 01:20:22;;;;;;;9.40;9.20;;;;;;;;;;5068262;28;20450;-70
2024/04/01 01:22:51;;;;;;;9.63;9.43;;;;;;;;;;5068214;28;20461;-71
2024/04/01 01:25:17;;;;;;;9.17;8.97;;;;;;;;;;5069035;28;20458;-72
2024/04/01 01:27:44;;;;;;;8.83;8.70;;;;;;;;;;5068756;28;20953;-72
2024/04/01 01:30:15;;;;;;;9.23;9.03;;;;;;;;;;5064884;28;20552;-71
2024/04/01 01:32:45;;;;;;;9.30;9.10;;;;;;;;;;5069579;28;20467;-71
2024/04/01 01:35:11;;;;;;;9.03;8.83;;;;;;;;;;5069331;28;20931;-70
2024/04/01 01:37:41;;;;;;;9.47;9.27;;;;;;;;;;5072991;28;20465;-69
2024/04/01 01:40:09;;;;;;;9.17;8.97;;;;;;;;;;5072883;28;20966;-71
2024/04/01 01:42:37;;;;;;;8.97;8.77;;;;;;;;;;5073668;28;21050;-69
2024/04/01 01:45:03;;;;;;;8.70;8.60;;;;;;;;;;5073188;28;21116;-70
2024/04/01 01:47:33;;;;;;;8.83;8.73;;;;;;;;;;5071727;28;20528;-71
2024/04/01 01:49:59;;;;;;;8.57;8.47;;;;;;;;;;5072422;28;20543;-70
2024/04/01 01:52:26;;;;;;;8.70;8.60;;;;;;;;;;5071943;28;21093;-71
2024/04/01 01:54:52;;;;;;;8.47;8.37;;;;;;;;;;5072289;28;21357;-70
2024/04/01 01:57:21;;;;;;;8.33;8.23;;;;;;;;;;5072741;28;20461;-72
2024/04/01 01:59:47;;;;;;;8.97;8.80;;;;;;;;;;5090824;28;20492;-71
2024/04/01 02:02:14;;;;;;;8.00;7.90;;;;;;;;;;5109232;28;20547;-70
2024/04/01 02:04:41;;;;;;;8.33;8.23;;;;;;;;;;5112818;27;20452;-71
2024/04/01 02:07:08;;;;;;;8.50;8.40;;;;;;;;;;5109246;28;20450;-71
2024/04/01 02:09:35;;;;;;;8.60;8.50;;;;;;;;;;5107423;28;20490;-70
2024/04/01 02:12:07;;;;;;;8.53;8.43;;;;;;;;;;5104723;28;20490;-71
2024/04/01 02:14:34;;;;;;;8.20;8.10;;;;;;;;;;5102962;28;20468;-71
2024/04/01 02:17:02;;;;;;;8.50;8.40;;;;;;;;;;5112482;27;20465;-70
2024/04/01 02:19:28;;;;;;;8.17;8.07;;;;;;;;;;5106257;27;20464;-70
2024/04/01 02:21:56;;;;;;;8.33;8.23;;;;;;;;;;5099013;28;20458;-68
2024/04/01 02:24:22;;;;;;;8.47;8.37;;;;;;;;;;5103932;28;20462;-70
2024/04/01 02:26:49;;;;;;;8.67;8.57;;;;;;;;;;5107249;28;20471;-69
2024/04/01 02:29:15;;;;;;;8.23;8.13;;;;;;;;;;5105338;27;20487;-69
2024/04/01 02:31:43;;;;;;;8.70;8.60;;;;;;;;;;5104809;28;20462;-71
2024/04/01 02:34:10;;;;;;;8.70;8.60;;;;;;;;;;5110587;28;20887;-70
2024/04/01 02:36:38;;;;;;;9.20;9.00;;;;;;;;;;5104163;28;21017;-71
2024/04/01 02:39:05;;;;;;;9.20;9.00;;;;;;;;;;5110499;28;20466;-70
2024/04/01 02:41:32;;;;;;;8.93;8.77;;;;;;;;;;5101676;28;20458;-70
2024/04/01 02:43:58;;;;;;;9.03;8.83;;;;;;;;;;5105614;28;20824;-71
2024/04/01 02:46:26;;;;;;;9.00;8.80;;;;;;;;;;5109951;28;20504;-72
2024/04/01 02:48:55;;;;;;;9.20;9.00;;;;;;;;;;5093814;28;20562;-70
2024/04/01 02:51:21;;;;;;;9.20;9.00;;;;;;;;;;5093974;27;20467;-70
2024/04/01 02:53:48;;;;;;;9.30;9.10;;;;;;;;;;5102900;27;20946;-70
2024/04/01 02:56:14;;;;;;;9.40;9.20;;;;;;;;;;5108805;28;20460;-70
2024/04/01 02:58:42;;;;;;;9.43;9.23;;;;;;;;;;5105971;28;20469;-71
2024/04/01 03:01:08;;;;;;;9.80;9.60;;;;;;;;;;5103350;28;20454;-71
2024/04/01 03:03:35;;;;;;;9.23;9.03;;;;;;;;;;5101771;28;20587;-69
2024/04/01 03:06:03;;;;;;;9.80;9.60;;;;;;;;;;5103162;28;20454;-71
2024/04/01 03:08:30;;;;;;;10.60;10.40;;;;;;;;;;5097378;28;20490;-70
2024/04/01 03:11:00;;;;;;;10.00;9.80;;;;;;;;;;5107373;28;20461;-70
2024/04/01 03:13:28;;;;;;;9.53;9.33;;;;;;;;;;5099727;28;20530;-69
2024/04/01 03:15:54;;;;;;;9.73;9.53;;;;;;;;;;5108784;28;20461;-70
2024/04/01 03:18:21;;;;;;;9.93;9.73;;;;;;;;;;5102099;28;21046;-70
2024/04/01 03:20:48;;;;;;;10.60;10.40;;;;;;;;;;5101701;28;20592;-69
2024/04/01 03:23:17;;;;;;;10.50;10.30;;;;;;;;;;5102097;28;20472;-71
2024/04/01 03:25:43;;;;;;;9.80;9.60;;;;;;;;;;5110400;28;20453;-70
2024/04/01 03:28:10;;;;;;;9.70;9.50;;;;;;;;;;5101410;28;20484;-70
2024/04/01 03:30:37;;;;;;;9.57;9.37;;;;;;;;;;5098121;28;20465;-70
2024/04/01 03:33:04;;;;;;;9.07;8.87;;;;;;;;;;5107252;28;20537;-71
2024/04/01 03:35:30;;;;;;;9.50;9.30;;;;;;;;;;5102893;28;21279;-71
2024/04/01 03:37:57;;;;;;;9.33;9.13;;;;;;;;;;5109672;28;20579;-69
2024/04/01 03:40:25;;;;;;;9.37;9.17;;;;;;;;;;5105869;28;20798;-71
2024/04/01 03:42:53;;;;;;;9.20;9.00;;;;;;;;;;5109140;28;20446;-71
2024/04/01 03:45:20;;;;;;;8.60;8.50;;;;;;;;;;5109569;28;20454;-70
2024/04/01 03:47:48;;;;;;;8.60;8.50;;;;;;;;;;5101046;28;20469;-69
2024/04/01 03:50:14;;;;;;;8.70;8.60;;;;;;;;;;5105447;28;20458;-71
2024/04/01 03:52:42;;;;;;;9.27;9.07;;;;;;;;;;5107358;28;20867;-71
2024/04/01 03:55:08;;;;;;;8.50;8.40;;;;;;;;;;5102508;28;20929;-71
2024/04/01 03:57:37;;;;;;;8.57;8.47;;;;;;;;;;5093052;28;20553;-69
2024/04/01 04:00:04;;;;;;;8.87;8.77;;;;;;;;;;5101192;28;20976;-71
2024/04/01 04:02:31;;;;;;;8.73;8.63;;;;;;;;;;5099650;28;21142;-71
2024/04/01 04:04:57;;;;;;;8.60;8.50;;;;;;;;;;5106506;28;20624;-71
2024/04/01 04:07:24;;;;;;;9.30;9.10;;;;;;;;;;5101017;28;20827;-70
2024/04/01 04:09:51;;;;;;;9.10;8.90;;;;;;;;;;5104049;28;20482;-70
2024/04/01 04:12:18;;;;;;;9.27;9.07;;;;;;;;;;5096954;28;20485;-69
2024/04/01 04:14:46;;;;;;;8.60;8.50;;;;;;;;;;5102997;28;21039;-70
2024/04/01 04:17:13;;;;;;;8.63;8.53;;;;;;;;;;5108428;28;20455;-70
2024/04/01 04:19:39;;;;;;;8.40;8.30;;;;;;;;;;5098417;28;20463;-71
2024/04/01 04:22:06;;;;;;;9.30;9.10;;;;;;;;;;5099788;28;20887;-70
2024/04/01 04:24:36;;;;;;;9.50;9.30;;;;;;;;;;5103931;28;20455;-69
2024/04/01 04:27:03;;;;;;;8.63;8.53;;;;;;;;;;5100671;28;20471;-70
2024/04/01 04:29:29;;;;;;;8.70;8.60;;;;;;;;;;5096343;28;20500;-70
2024/04/01 04:32:09;;;;;;;7.83;7.73;;;;;;;;;;5104084;28;20571;-71
2024/04/01 04:34:35;;;;;;;8.67;8.57;;;;;;;;;;5100239;28;20974;-69
2024/04/01 04:37:05;;;;;;;8.50;8.40;;;;;;;;;;5102278;28;20501;-71
2024/04/01 04:39:31;;;;;;;8.70;8.60;;;;;;;;;;5105597;28;20524;-72
2024/04/01 04:41:59;;;;;;;8.50;8.40;;;;;;;;;;5094868;28;20462;-71
2024/04/01 04:44:25;;;;;;;8.43;8.33;;;;;;;;;;5107344;28;20460;-71
2024/04/01 04:46:52;;;;;;;7.37;7.27;;;;;;;;;;5108808;28;20494;-69
2024/04/01 04:49:20;;;;;;;8.53;8.43;;;;;;;;;;5104589;28;20500;-70
2024/04/01 04:51:47;;;;;;;8.00;7.90;;;;;;;;;;5101406;28;20465;-69
2024/04/01 04:54:29;;;;;;;7.33;7.23;;;;;;;;;;5107202;28;20463;-71
2024/04/01 04:56:57;;;;;;;8.67;8.57;;;;;;;;;;5100350;28;20592;-71
2024/04/01 04:59:26;;;;;;;9.33;9.13;;;;;;;;;;5095095;28;20461;-70
2024/04/01 05:01:53;;;;;;;9.27;9.07;;;;;;;;;;5099482;28;20989;-70
2024/04/01 05:04:20;;;;;;;10.70;10.47;;;;;;;;;;5112818;28;20856;-70
2024/04/01 05:06:48;;;;;;;12.67;12.27;;;;;;;;;;5111596;28;20467;-70
2024/04/01 05:09:14;;;;;;;13.07;12.67;;;;;;;;;;5100312;28;20502;-70
2024/04/01 05:11:41;;;;;;;13.83;13.33;;;;;;;;;;5107687;27;20468;-70
2024/04/01 05:14:08;;;;;;;14.93;14.43;;;;;;;;;;5109243;27;20535;-68
2024/04/01 05:16:35;;;;;;;16.50;15.80;;;;;;;;;;5117639;27;20498;-69
2024/04/01 05:19:01;;;;;;;17.27;16.47;;;;;;;;;;5111378;27;20781;-69
2024/04/01 05:21:30;;;;;;;18.10;17.20;;;;;;;;;;5110363;27;20452;-68
2024/04/01 05:23:56;;;;;;;17.70;16.80;;;;;;;;;;5109801;27;20826;-68
2024/04/01 05:26:23;;;;;;;18.10;17.20;;;;;;;;;;5115787;27;20467;-68
2024/04/01 05:28:50;;;;;;;18.13;17.23;;;;;;;;;;5115191;27;20490;-68
2024/04/01 05:31:17;;;;;;;18.33;17.40;;;;;;;;;;5112968;27;20463;-70
2024/04/01 05:33:44;;;;;;;19.37;18.27;;;;;;;;;;5113405;27;20487;-69
2024/04/01 05:36:12;;;;;;;19.60;18.40;;;;;;;;;;5109650;27;20466;-69
2024/04/01 05:38:40;;;;;;;19.20;18.10;;;;;;;;;;5104904;27;21505;-69
2024/04/01 05:41:07;;;;;;;19.87;18.67;;;;;;;;;;5113173;27;20879;-68
2024/04/01 05:43:33;;;;;;;19.17;18.07;;;;;;;;;;5110421;27;20609;-69
2024/04/01 05:46:00;;;;;;;19.60;18.50;;;;;;;;;;5117421;27;20490;-70
2024/04/01 05:48:26;;;;;;;19.30;18.27;;;;;;;;;;5114141;27;20699;-70
2024/04/01 05:50:53;;;;;;;19.00;18.00;;;;;;;;;;5104315;27;20547;-70
2024/04/01 05:53:20;;;;;;;19.00;18.00;;;;;;;;;;5109750;27;20489;-70
2024/04/01 05:55:48;;;;;;;18.97;17.97;;;;;;;;;;5107621;27;21087;-69
2024/04/01 05:58:14;;;;;;;18.67;17.67;;;;;;;;;;5106500;27;21042;-70
2024/04/01 06:00:42;;;;;;;18.83;17.83;;;;;;;;;;5107667;27;20474;-70
2024/04/01 06:03:08;;;;;;;18.70;17.80;;;;;;;;;;5100227;27;21037;-70
2024/04/01 06:05:35;;;;;;;19.80;18.80;;;;;;;;;;5108632;27;20549;-69
2024/04/01 06:08:01;;;;;;;19.53;18.63;;;;;;;;;;5107483;27;20978;-71
2024/04/01 06:10:28;;;;;;;19.57;18.67;;;;;;;;;;5112975;27;20478;-69
2024/04/01 06:12:56;;;;;;;19.90;19.00;;;;;;;;;;5103912;27;20510;-70
2024/04/01 06:15:24;;;;;;;19.53;18.63;;;;;;;;;;5115220;27;20460;-70
2024/04/01 06:17:51;;;;;;;19.43;18.53;;;;;;;;;;5106977;27;20473;-70
2024/04/01 06:20:18;;;;;;;20.20;19.30;;;;;;;;;;5112391;27;20467;-69
2024/04/01 06:22:44;;;;;;;20.20;19.30;;;;;;;;;;5101878;27;20832;-69
2024/04/01 06:25:11;;;;;;;20.63;19.73;;;;;;;;;;5112801;27;20473;-70
2024/04/01 06:27:38;;;;;;;20.87;19.97;;;;;;;;;;5114522;27;20457;-70
2024/04/01 06:30:07;;;;;;;21.23;20.33;;;;;;;;;;5111274;27;20863;-70
2024/04/01 06:32:33;;;;;;;21.37;20.47;;;;;;;;;;5099089;27;20991;-69
2024/04/01 06:35:01;;;;;;;20.70;19.90;;;;;;;;;;5111324;27;20463;-69
2024/04/01 06:37:28;;;;;;;21.67;20.77;;;;;;;;;;5103013;27;20461;-70
2024/04/01 06:39:55;;;;;;;22.20;21.30;;;;;;;;;;5108259;27;20460;-70
2024/04/01 06:42:21;;;;;;;20.93;20.13;;;;;;;;;;5106987;27;20713;-69
2024/04/01 06:44:49;;;;;;;20.87;20.07;;;;;;;;;;5107749;27;20463;-69
2024/04/01 06:47:17;;;;;;;20.07;19.37;;;;;;;;;;5098486;27;20461;-71
2024/04/01 06:49:45;;;;;;;21.07;20.27;;;;;;;;;;5113414;27;20505;-70
2024/04/01 06:52:11;;;;;;;20.63;19.90;;;;;;;;;;5111170;27;20495;-70
2024/04/01 06:54:38;;;;;;;20.73;19.93;;;;;;;;;;5108508;27;20670;-71
2024/04/01 06:57:08;;;;;;;21.50;20.70;;;;;;;;;;5111179;27;20455;-70
2024/04/01 06:59:35;;;;;;;20.93;20.13;;;;;;;;;;5109154;27;20463;-69
2024/04/01 07:02:01;;;;;;;20.67;19.97;;;;;;;;;;5106059;27;20500;-70
2024/04/01 07:04:30;;;;;;;19.87;19.17;;;;;;;;;;5104945;27;20476;-70
2024/04/01 07:06:56;;;;;;;20.00;19.30;;;;;;;;;;5112203;27;20460;-70
2024/04/01 07:09:23;;;;;;;20.40;19.70;;;;;;;;;;5104536;27;20506;-70
2024/04/01 07:11:49;;;;;;;21.73;20.93;;;;;;;;;;5114794;27;20462;-70
2024/04/01 07:14:17;;;;;;;20.70;20.00;;;;;;;;;;5109670;27;20681;-70
2024/04/01 07:16:43;;;;;;;20.90;20.20;;;;;;;;;;5114623;27;20471;-70
2024/04/01 07:19:10;;;;;;;21.07;20.37;;;;;;;;;;5115711;27;20745;-70
2024/04/01 07:21:38;;;;;;;20.43;19.73;;;;;;;;;;5111782;27;20498;-71
2024/04/01 07:24:06;;;;;;;21.73;20.93;;;;;;;;;;5113640;27;20454;-70
2024/04/01 07:26:32;;;;;;;20.60;19.90;;;;;;;;;;5112191;27;20468;-71
2024/04/01 07:28:59;;;;;;;20.97;20.27;;;;;;;;;;5100100;27;21029;-72
2024/04/01 07:31:26;;;;;;;20.60;19.90;;;;;;;;;;5103425;27;20467;-71
2024/04/01 07:33:53;;;;;;;21.23;20.53;;;;;;;;;;5113594;27;20981;-70
2024/04/01 07:36:19;;;;;;;20.07;19.37;;;;;;;;;;5113781;27;20464;-71
2024/04/01 07:38:47;;;;;;;20.60;19.90;;;;;;;;;;5112974;27;20504;-70
2024/04/01 07:41:14;;;;;;;20.20;19.50;;;;;;;;;;5107613;27;20469;-70
2024/04/01 07:43:41;;;;;;;19.17;18.57;;;;;;;;;;5116244;27;20459;-70
2024/04/01 07:46:08;;;;;;;21.13;20.43;;;;;;;;;;5114337;27;20463;-71
2024/04/01 07:48:37;;;;;;;20.53;19.83;;;;;;;;;;5105555;27;20679;-71
2024/04/01 07:51:03;;;;;;;21.33;20.63;;;;;;;;;;5110309;27;20457;-69
2024/04/01 07:53:32;;;;;;;21.83;21.03;;;;;;;;;;5106688;27;20483;-70
2024/04/01 07:55:59;;;;;;;22.87;22.07;;;;;;;;;;5110509;27;20468;-70
2024/04/01 07:58:27;;;;;;;22.77;21.97;;;;;;;;;;5106234;28;20464;-70
2024/04/01 08:00:53;;;;;;;22.13;21.33;;;;;;;;;;5100081;28;20516;-69
2024/04/01 08:03:20;;;;;;;23.47;22.67;;;;;;;;;;5102702;28;20496;-70
2024/04/01 08:05:46;;;;;;;22.40;21.60;;;;;;;;;;5103317;28;20452;-70
2024/04/01 08:08:13;;;;;;;21.93;21.17;;;;;;;;;;5104371;28;20470;-72
2024/04/01 08:10:39;;;;;;;21.30;20.60;;;;;;;;;;5106167;28;20474;-71
2024/04/01 08:13:08;;;;;;;21.77;21.00;;;;;;;;;;5107721;28;20823;-71
2024/04/01 08:15:34;;;;;;;21.30;20.60;;;;;;;;;;5108019;28;20512;-71
2024/04/01 08:18:01;;;;;;;22.67;21.87;;;;;;;;;;5098808;28;20472;-72
2024/04/01 08:20:27;;;;;;;22.83;22.03;;;;;;;;;;5104506;28;20839;-71
2024/04/01 08:22:55;;;;;;;21.33;20.63;;;;;;;;;;5104824;28;20466;-71
2024/04/01 08:25:21;;;;;;;22.47;21.67;;;;;;;;;;5106702;28;20455;-71
2024/04/01 08:27:51;;;;;;;22.07;21.37;;;;;;;;;;5108048;28;20478;-72
2024/04/01 08:30:18;;;;;;;20.50;19.80;;;;;;;;;;5097965;28;20497;-71
2024/04/01 08:32:45;;;;;;;21.10;20.40;;;;;;;;;;5101689;28;20491;-71
2024/04/01 08:35:12;;;;;;;20.70;20.00;;;;;;;;;;5107186;28;20451;-71
2024/04/01 08:37:39;;;;;;;20.63;19.93;;;;;;;;;;5107773;28;20460;-71
2024/04/01 08:40:06;;;;;;;19.60;19.00;;;;;;;;;;5101322;28;20472;-71
2024/04/01 08:42:35;;;;;;;19.60;19.00;;;;;;;;;;5102807;28;20941;-70
2024/04/01 08:45:05;;;;;;;20.90;20.20;;;;;;;;;;5107105;28;20457;-71
2024/04/01 08:47:36;;;;;;;21.70;21.00;;;;;;;;;;5099032;28;20547;-70
2024/04/01 08:50:04;;;;;;;20.10;19.50;;;;;;;;;;5105134;28;20838;-70
2024/04/01 08:52:38;;;;;;;19.93;19.33;;;;;;;;;;5107749;28;20449;-72
2024/04/01 08:55:04;;;;;;;20.73;20.03;;;;;;;;;;5107663;28;20926;-72
2024/04/01 08:57:32;;;;;;;21.07;20.37;;;;;;;;;;5101593;28;20451;-71
2024/04/01 08:59:58;;;;;;;22.17;21.37;;;;;;;;;;5097967;28;20528;-72
2024/04/01 09:02:25;;;;;;;21.40;20.70;;;;;;;;;;5107344;28;20467;-71
2024/04/01 09:04:53;;;;;;;20.87;20.17;;;;;;;;;;5104586;28;20468;-71
2024/04/01 09:07:23;;;;;;;22.27;21.47;;;;;;;;;;5106542;28;20465;-71
2024/04/01 09:09:49;;;;;;;22.70;21.90;;;;;;;;;;5093987;28;20499;-70
2024/04/01 09:12:21;;;;;;;21.23;20.53;;;;;;;;;;5102202;28;20503;-70
2024/04/01 09:14:47;;;;;;;21.37;20.67;;;;;;;;;;5107317;28;20456;-71
2024/04/01 09:17:14;;;;;;;21.73;21.03;;;;;;;;;;5103239;28;20820;-71
2024/04/01 09:19:49;;;;;;;21.37;20.67;;;;;;;;;;5101788;28;20454;-71
2024/04/01 09:22:21;;;;;;;20.70;20.00;;;;;;;;;;5107598;28;20513;-72
2024/04/01 09:24:50;;;;;;;22.03;21.23;;;;;;;;;;5106710;28;20530;-72
2024/04/01 09:27:23;;;;;;;21.07;20.37;;;;;;;;;;5101530;28;20473;-73
2024/04/01 09:29:49;;;;;;;20.67;19.97;;;;;;;;;;5094396;28;20496;-72
2024/04/01 09:32:17;;;;;;;20.87;20.17;;;;;;;;;;5100321;28;20487;-72
2024/04/01 09:34:43;;;;;;;19.33;18.73;;;;;;;;;;5103560;28;20813;-71
2024/04/01 09:37:12;;;;;;;20.20;19.50;;;;;;;;;;5102512;28;20519;-71
2024/04/01 09:39:44;;;;;;;20.13;19.43;;;;;;;;;;5107127;28;20462;-71
2024/04/01 09:42:11;;;;;;;19.93;19.23;;;;;;;;;;5094799;28;20544;-70
2024/04/01 09:44:40;;;;;;;20.53;19.83;;;;;;;;;;5102103;28;20473;-71
2024/04/01 09:47:07;;;;;;;19.93;19.23;;;;;;;;;;5104142;28;20852;-72
2024/04/01 09:49:34;;;;;;;19.37;18.67;;;;;;;;;;5107688;28;20495;-71
2024/04/01 09:52:01;;;;;;;19.30;18.60;;;;;;;;;;5102773;28;20478;-71
2024/04/01 09:54:28;;;;;;;18.63;17.93;;;;;;;;;;5102415;28;20457;-73
2024/04/01 09:57:13;;;;;;;19.23;18.53;;;;;;;;;;5102352;28;21008;-71
2024/04/01 09:59:57;;;;;;;18.20;17.50;;;;;;;;;;5108945;28;20534;-71
2024/04/01 10:02:45;;;;;;;17.07;16.47;;;;;;;;;;5105564;28;20492;-71
2024/04/01 10:05:20;;;;;;;17.70;17.00;;;;;;;;;;5105334;28;20467;-71
2024/04/01 10:08:00;;;;;;;17.10;16.50;;;;;;;;;;5100211;27;20488;-71
2024/04/01 10:10:44;;;;;;;16.97;16.37;;;;;;;;;;5102155;28;20496;-71
2024/04/01 10:13:29;;;;;;;16.90;16.30;;;;;;;;;;5097919;28;20481;-71
2024/04/01 10:16:22;;;;;;;16.23;15.63;;;;;;;;;;5076491;27;20467;-71
2024/04/01 10:19:03;;;;;;;16.20;15.60;;;;;;;;;;5039372;28;20508;-71
2024/04/01 10:21:42;;;;;;;16.10;15.50;;;;;;;;;;5051741;28;20809;-70
2024/04/01 10:24:20;;;;;;;15.83;15.23;;;;;;;;;;5098296;28;20465;-70
2024/04/01 10:27:01;;;;;;;15.97;15.37;;;;;;;;;;5099138;28;20888;-70
2024/04/01 10:29:45;;;;;;;16.00;15.40;;;;;;;;;;5098451;28;20485;-69
2024/04/01 10:32:24;;;;;;;15.50;14.90;;;;;;;;;;5108435;28;20458;-70
2024/04/01 10:35:03;;;;;;;15.17;14.57;;;;;;;;;;5104452;28;20460;-69
2024/04/01 10:37:37;;;;;;;14.57;14.07;;;;;;;;;;5106487;28;20469;-72
2024/04/01 10:40:05;;;;;;;15.13;14.53;;;;;;;;;;5101452;28;20882;-71
2024/04/01 10:42:49;;;;;;;15.10;14.50;;;;;;;;;;5109783;28;20452;-71
2024/04/01 10:45:35;;;;;;;15.23;14.63;;;;;;;;;;5111705;27;20498;-73
2024/04/01 10:48:17;;;;;;;15.50;14.90;;;;;;;;;;5100500;28;20863;-72
2024/04/01 10:51:05;;;;;;;15.83;15.13;;;;;;;;;;5109395;28;20511;-70
2024/04/01 10:53:49;;;;;;;15.03;14.43;;;;;;;;;;5106648;28;20817;-71
2024/04/01 10:56:35;;;;;;;15.03;14.43;;;;;;;;;;5103396;28;20501;-69
2024/04/01 10:59:25;;;;;;;15.60;14.93;;;;;;;;;;5107097;28;20467;-70
2024/04/01 11:02:08;;;;;;;15.00;14.40;;;;;;;;;;5109769;28;20508;-69
2024/04/01 11:04:43;;;;;;;14.87;14.27;;;;;;;;;;5110812;28;20552;-71
2024/04/01 11:07:22;;;;;;;14.40;13.90;;;;;;;;;;5106682;28;20461;-72
2024/04/01 11:10:08;;;;;;;14.83;14.27;;;;;;;;;;5107704;28;20987;-69
2024/04/01 11:12:40;;;;;;;14.17;13.67;;;;;;;;;;5108099;28;21037;-71
2024/04/01 11:15:08;;;;;;;13.90;13.40;;;;;;;;;;5104042;28;20502;-72
2024/04/01 11:17:36;;;;;;;13.10;12.70;;;;;;;;;;5106709;28;20488;-70
2024/04/01 11:20:20;;;;;;;12.73;12.33;;;;;;;;;;5108425;28;20464;-68
2024/04/01 11:22:59;;;;;;;12.97;12.57;;;;;;;;;;5103099;28;20473;-70
2024/04/01 11:25:33;;;;;;;13.03;12.63;;;;;;;;;;5110059;28;20785;-70
2024/04/01 11:28:13;;;;;;;12.60;12.20;;;;;;;;;;5103321;28;20504;-70
2024/04/01 11:30:39;;;;;;;12.83;12.43;;;;;;;;;;5101623;28;20489;-70
2024/04/01 11:33:08;;;;;;;12.83;12.43;;;;;;;;;;5106696;28;20545;-70
2024/04/01 11:35:47;;;;;;;12.53;12.13;;;;;;;;;;5107770;27;20536;-70
2024/04/01 11:38:31;;;;;;;12.67;12.27;;;;;;;;;;5107672;28;20473;-69
2024/04/01 11:40:59;;;;;;;12.73;12.33;;;;;;;;;;5108134;27;20537;-69
2024/04/01 11:43:27;;;;;;;12.77;12.37;;;;;;;;;;5110726;27;20515;-69
2024/04/01 11:45:54;;;;;;;12.30;12.00;;;;;;;;;;5109225;28;20478;-70
2024/04/01 11:48:34;;;;;;;12.30;12.00;;;;;;;;;;5111811;28;20896;-69
2024/04/01 11:51:02;;;;;;;12.53;12.13;;;;;;;;;;5119095;28;20508;-71
2024/04/01 11:53:39;;;;;;;12.70;12.30;;;;;;;;;;5108808;28;20481;-69
2024/04/01 11:56:07;;;;;;;12.73;12.33;;;;;;;;;;5112474;28;20526;-72
2024/04/01 11:58:34;;;;;;;12.07;11.77;;;;;;;;;;5110448;28;20469;-70
2024/04/01 12:01:04;;;;;;;12.80;12.40;;;;;;;;;;5109917;28;20466;-70
2024/04/01 12:03:40;;;;;;;13.17;12.77;;;;;;;;;;5106424;28;20510;-69
2024/04/01 12:06:07;;;;;;;12.83;12.43;;;;;;;;;;5104393;28;20460;-69
2024/04/01 12:08:35;;;;;;;13.00;12.60;;;;;;;;;;5119739;28;20460;-70
2024/04/01 12:11:04;;;;;;;13.07;12.67;;;;;;;;;;5111985;28;20505;-70
2024/04/01 12:13:33;;;;;;;13.63;13.23;;;;;;;;;;5092452;28;20485;-69
2024/04/01 12:16:00;;;;;;;14.07;13.57;;;;;;;;;;5082506;28;20481;-71
2024/04/01 12:18:27;;;;;;;13.60;13.20;;;;;;;;;;5082408;28;20493;-70
2024/04/01 12:20:54;;;;;;;13.90;13.47;;;;;;;;;;5087321;28;20547;-70
2024/04/01 12:23:22;;;;;;;13.60;13.20;;;;;;;;;;5080851;28;21233;-71
2024/04/01 12:25:48;;;;;;;14.20;13.70;;;;;;;;;;5074907;28;20484;-69
2024/04/01 12:28:16;;;;;;;13.63;13.23;;;;;;;;;;5083620;28;20515;-70
2024/04/01 12:30:48;;;;;;;13.17;12.77;;;;;;;;;;5083682;28;20484;-69
2024/04/01 12:33:15;;;;;;;13.53;13.13;;;;;;;;;;5082137;28;20468;-72
2024/04/01 12:35:42;;;;;;;13.27;12.87;;;;;;;;;;5085150;28;20831;-70
2024/04/01 12:38:13;;;;;;;13.30;12.90;;;;;;;;;;5080921;28;20463;-70
2024/04/01 12:40:45;;;;;;;12.70;12.30;;;;;;;;;;5084798;28;20460;-70
2024/04/01 12:43:17;;;;;;;13.70;13.30;;;;;;;;;;5083797;28;20454;-71
2024/04/01 12:45:46;;;;;;;13.90;13.40;;;;;;;;;;5087695;28;20458;-72
2024/04/01 12:48:16;;;;;;;13.97;13.50;;;;;;;;;;5084390;28;20944;-70
2024/04/01 12:50:43;;;;;;;13.53;13.13;;;;;;;;;;5083874;28;20501;-72
2024/04/01 12:53:18;;;;;;;13.47;13.07;;;;;;;;;;5083046;28;20465;-71
2024/04/01 12:55:47;;;;;;;13.97;13.47;;;;;;;;;;5079265;28;21031;-72
2024/04/01 12:58:16;;;;;;;14.47;13.97;;;;;;;;;;5083932;28;20523;-72
2024/04/01 13:00:45;;;;;;;14.27;13.77;;;;;;;;;;5082360;28;20465;-71
2024/04/01 13:03:34;;;;;;;14.40;13.90;;;;;;;;;;5083943;28;20500;-70
2024/04/01 13:06:06;;;;;;;13.57;13.17;;;;;;;;;;5078999;28;20460;-69
2024/04/01 13:08:40;;;;;;;13.90;13.50;;;;;;;;;;5086335;28;20485;-70
2024/04/01 13:11:12;;;;;;;13.70;13.30;;;;;;;;;;5079816;28;20977;-69
2024/04/01 13:13:47;;;;;;;13.40;13.00;;;;;;;;;;5095374;28;20492;-71
2024/04/01 13:16:17;;;;;;;13.67;13.27;;;;;;;;;;5103947;28;20451;-72
2024/04/01 13:18:46;;;;;;;13.67;13.27;;;;;;;;;;5102134;28;20546;-72
2024/04/01 13:21:18;;;;;;;13.20;12.80;;;;;;;;;;5108005;28;20449;-71
2024/04/01 13:23:48;;;;;;;13.37;12.97;;;;;;;;;;5101733;28;20449;-71
2024/04/01 13:26:19;;;;;;;13.90;13.40;;;;;;;;;;5099747;28;20464;-69
2024/04/01 13:28:49;;;;;;;13.43;13.03;;;;;;;;;;5092993;28;20527;-69
2024/04/01 13:31:27;;;;;;;13.80;13.40;;;;;;;;;;5099618;28;20482;-69
2024/04/01 13:34:05;;;;;;;13.50;13.10;;;;;;;;;;5111230;28;20497;-70
2024/04/01 13:36:39;;;;;;;13.43;13.03;;;;;;;;;;5097370;28;20517;-71
2024/04/01 13:39:09;;;;;;;13.37;12.97;;;;;;;;;;5100400;28;20468;-70
2024/04/01 13:41:42;;;;;;;13.40;13.00;;;;;;;;;;5104523;28;20880;-69
2024/04/01 13:44:16;;;;;;;13.00;12.60;;;;;;;;;;5110611;28;20835;-71
2024/04/01 13:49:47;;;;;;;13.30;12.90;;;;;;;;;;5102193;28;20544;-71
2024/04/01 13:52:20;;;;;;;12.90;12.50;;;;;;;;;;5105049;28;20485;-71
2024/04/01 13:54:52;;;;;;;13.43;13.03;;;;;;;;;;5103602;28;20459;-72
2024/04/01 13:57:26;;;;;;;13.30;12.90;;;;;;;;;;5110829;28;20536;-70
2024/04/01 13:59:57;;;;;;;13.53;13.13;;;;;;;;;;5104589;28;20508;-71
2024/04/01 14:02:27;;;;;;;14.13;13.67;;;;;;;;;;5106347;28;20838;-71
2024/04/01 14:04:58;;;;;;;13.73;13.33;;;;;;;;;;5106468;28;20457;-69
2024/04/01 14:07:33;;;;;;;13.90;13.50;;;;;;;;;;5103202;28;20956;-70
2024/04/01 14:10:04;;;;;;;13.87;13.47;;;;;;;;;;5100584;28;20481;-69
2024/04/01 14:12:36;;;;;;;13.23;12.83;;;;;;;;;;5097226;28;20486;-71
2024/04/01 14:15:12;;;;;;;13.37;12.97;;;;;;;;;;5092263;28;20557;-71
2024/04/01 14:17:42;;;;;;;13.53;13.13;;;;;;;;;;5080551;28;20485;-72
2024/04/01 14:20:11;;;;;;;13.40;13.00;;;;;;;;;;5084171;28;20534;-70
2024/04/01 14:22:39;;;;;;;13.37;12.97;;;;;;;;;;5083492;28;20529;-71
2024/04/01 14:25:06;;;;;;;13.37;12.97;;;;;;;;;;5090721;28;20476;-71
2024/04/01 14:27:34;;;;;;;13.17;12.77;;;;;;;;;;5080330;28;20527;-72
2024/04/01 14:30:01;;;;;;;13.30;12.90;;;;;;;;;;5088795;28;20979;-71
2024/04/01 14:32:27;;;;;;;14.00;13.60;;;;;;;;;;5089806;28;20451;-70
2024/04/01 14:34:55;;;;;;;13.57;13.17;;;;;;;;;;5088373;28;20466;-71
2024/04/01 14:37:22;;;;;;;13.30;12.90;;;;;;;;;;5081661;28;20463;-71
2024/04/01 14:39:51;;;;;;;13.60;13.20;;;;;;;;;;5082024;28;20936;-71
2024/04/01 14:42:17;;;;;;;13.80;13.40;;;;;;;;;;5078997;28;21031;-70